This is the latest recevied weather packets stored in our database for station/object K4DFD-13. If no packets are shown the sender has not sent any weather packets the latest 10 day(s).
| Time | Temp. | Humidity | Pressure | Rain* | Wind** | Luminosity | Snow |
|---|---|---|---|---|---|---|---|
| 1777303521 | 13.33° C | 70% | 1023.8 hPa | 0 mm | - | - | - |
| 1777303217 | 13.33° C | 72% | 1023.8 hPa | 0 mm | - | - | - |
| 1777302917 | 13.33° C | 67% | 1023.9 hPa | 0 mm | - | - | - |
| 1777302618 | 12.22° C | 71% | 1023.9 hPa | 0 mm | - | - | - |
| 1777302016 | 11.67° C | 75% | 1024 hPa | 0 mm | - | - | - |
| 1777301115 | 11.11° C | 76% | 1023.9 hPa | 0 mm | - | - | - |
| 1777300814 | 10.56° C | 77% | 1024.6 hPa | 0 mm | - | - | - |
| 1777300514 | 11.11° C | 74% | 1024.6 hPa | 0 mm | - | - | - |
| 1777300213 | 10.56° C | 74% | 1024.7 hPa | 0 mm | - | - | - |
| 1777299913 | 10.56° C | 75% | 1024.7 hPa | 0 mm | - | - | - |
| 1777299613 | 10° C | 76% | 1024.7 hPa | 0 mm | - | - | - |
| 1777299312 | 10° C | 78% | 1024.9 hPa | 0 mm | - | - | - |
| 1777299012 | 10.56° C | 75% | 1024.6 hPa | 0 mm | - | - | - |
| 1777298711 | 10° C | 79% | 1024.1 hPa | 0 mm | - | - | - |
| 1777298411 | 9.44° C | 80% | 1024.7 hPa | 0 mm | - | - | - |
| 1777297510 | 8.89° C | 82% | 1024.8 hPa | 0 mm | - | - | - |
| 1777296909 | 8.89° C | 82% | 1024.8 hPa | 0 mm | - | - | - |
| 1777296609 | 8.89° C | 82% | 1024.7 hPa | 0 mm | - | - | - |
| 1777296309 | 8.89° C | 82% | 1024.7 hPa | 0 mm | - | - | - |
| 1777295708 | 8.33° C | 83% | 1024.6 hPa | 0 mm | - | - | - |
| 1777295407 | 8.33° C | 83% | 1024.6 hPa | 0 mm | - | - | - |
| 1777294807 | 8.33° C | 83% | 1024.7 hPa | 0 mm | - | - | - |
| 1777294506 | 8.33° C | 84% | 1024.8 hPa | 0 mm | - | - | - |
| 1777294206 | 8.33° C | 84% | 1024.8 hPa | 0 mm | - | - | - |
| 1777293305 | 8.33° C | 85% | 1024.7 hPa | 0 mm | - | - | - |
* Rain latest hour (hover to see other rain measurements)
** Current wind speed in m/s (hover to see current wind gust speed)